Terminal Aerodrome Forecast
Issued by NWS Boston, MA

Home | Current Version | Previous Version | Text Only | Print | Product List | Glossary On
Versions: 1 2 3 4 5 6 7 8 9 10 11 12 13 14 15 16 17 18 19 20 21 22
000
FTUS41 KBOX 301204 AAA
TAFORH
TAF AMD
KORH 301204Z 3012/3112 00000KT 4SM -SHRA BR OVC002
      TEMPO 3012/3015 2SM -SHRA BR OVC002
     FM301500 VRB03KT 3SM BR VCSH OVC003
     FM301800 VRB03KT P6SM BKN010
     FM302100 22010KT P6SM VCTS BKN025CB
     FM310000 22010G17KT P6SM BKN030
     FM310400 24010KT 2SM BR BKN020=

USA.gov is the U.S. government's official web portal to all federal, state and local government web resources and services.